RJAW/IWO METAR and TAF weather

Enter ICAO airport designator
Station Type Date Time Source
RJAW METAR 2020/04/09 09:00 UTC NOAA

RJAW 090900Z 07012KT 3500 -SHRA BR SCT002 BKN005 OVC008 22/20 Q1013 RMK 3ST002 6ST005 8ST008 A2992


Station Type Date Time Source
RJAW Decoded METAR 2020/04/09 09:00 UTC NOAA

Iwojima, Japan (RJAW) 24-47N 141-19E 116M
Apr 09, 2020 - 05:00 AM EDT / 2020.04.09 0900 UTC
Wind: from the ENE (070 degrees) at 14 MPH (12 KT):0
Visibility: 2 mile(s):0
Sky conditions: overcast
Weather: light rain showers; mist
Temperature: 71 F (22 C)
Dew Point: 68 F (20 C)
Relative Humidity: 88%
Pressure (altimeter): 29.91 in. Hg (1013 hPa)
ob: RJAW 090900Z 07012KT 3500 -SHRA BR SCT002 BKN005 OVC008 22/20 Q1013 RMK 3ST002 6ST005 8ST008 A2992
cycle: 9

Station Type Date Time Source
RJAW TAF UTC NOAA

Error!

Example: see airport list